sensor_id;sensor_type;location;lat;lon;timestamp;pressure;altitude;pressure_sealevel;temperature
70050;BMP180;57391;51.306;22.680;2022-07-21T00:01:39;100147.80;;;18.40
70050;BMP180;57391;51.306;22.680;2022-07-21T00:04:06;100149.40;;;18.30
70050;BMP180;57391;51.306;22.680;2022-07-21T00:06:33;100148.20;;;18.30
70050;BMP180;57391;51.306;22.680;2022-07-21T00:09:00;100152.80;;;18.20
70050;BMP180;57391;51.306;22.680;2022-07-21T00:11:27;100153.80;;;18.10
70050;BMP180;57391;51.306;22.680;2022-07-21T00:13:54;100151.60;;;18.00
70050;BMP180;57391;51.306;22.680;2022-07-21T00:16:21;100147.60;;;18.00
70050;BMP180;57391;51.306;22.680;2022-07-21T00:18:49;100152.60;;;18.00
70050;BMP180;57391;51.306;22.680;2022-07-21T00:21:16;100150.80;;;17.90
70050;BMP180;57391;51.306;22.680;2022-07-21T00:23:43;100147.40;;;17.90
70050;BMP180;57391;51.306;22.680;2022-07-21T00:26:10;100149.60;;;17.84
70050;BMP180;57391;51.306;22.680;2022-07-21T00:28:38;100156.00;;;17.80
70050;BMP180;57391;51.306;22.680;2022-07-21T00:31:05;100159.40;;;17.80
70050;BMP180;57391;51.306;22.680;2022-07-21T00:33:32;100157.00;;;17.70
70050;BMP180;57391;51.306;22.680;2022-07-21T00:35:59;100155.80;;;17.70
70050;BMP180;57391;51.306;22.680;2022-07-21T00:38:26;100154.00;;;17.60
70050;BMP180;57391;51.306;22.680;2022-07-21T00:40:54;100153.00;;;17.60
70050;BMP180;57391;51.306;22.680;2022-07-21T00:43:21;100151.60;;;17.50
70050;BMP180;57391;51.306;22.680;2022-07-21T00:45:53;100154.40;;;17.50
70050;BMP180;57391;51.306;22.680;2022-07-21T00:48:20;100154.20;;;17.40
70050;BMP180;57391;51.306;22.680;2022-07-21T00:50:48;100156.80;;;17.36
70050;BMP180;57391;51.306;22.680;2022-07-21T00:53:15;100158.20;;;17.30
70050;BMP180;57391;51.306;22.680;2022-07-21T00:55:44;100155.20;;;17.30
70050;BMP180;57391;51.306;22.680;2022-07-21T00:58:12;100158.80;;;17.22
70050;BMP180;57391;51.306;22.680;2022-07-21T01:00:40;100159.80;;;17.20
70050;BMP180;57391;51.306;22.680;2022-07-21T01:03:08;100156.80;;;17.20
70050;BMP180;57391;51.306;22.680;2022-07-21T01:05:35;100157.40;;;17.10
70050;BMP180;57391;51.306;22.680;2022-07-21T01:08:03;100157.60;;;17.10
70050;BMP180;57391;51.306;22.680;2022-07-21T01:10:32;100160.20;;;17.02
70050;BMP180;57391;51.306;22.680;2022-07-21T01:13:00;100160.60;;;17.00
70050;BMP180;57391;51.306;22.680;2022-07-21T01:15:28;100165.40;;;17.00
70050;BMP180;57391;51.306;22.680;2022-07-21T01:17:55;100165.60;;;17.00
70050;BMP180;57391;51.306;22.680;2022-07-21T01:20:24;100164.80;;;17.00
70050;BMP180;57391;51.306;22.680;2022-07-21T01:22:55;100162.20;;;17.00
70050;BMP180;57391;51.306;22.680;2022-07-21T01:25:25;100169.40;;;17.00
70050;BMP180;57391;51.306;22.680;2022-07-21T01:27:52;100164.80;;;16.90
70050;BMP180;57391;51.306;22.680;2022-07-21T01:30:19;100162.40;;;16.90
70050;BMP180;57391;51.306;22.680;2022-07-21T01:32:46;100161.40;;;16.90
70050;BMP180;57391;51.306;22.680;2022-07-21T01:35:15;100162.80;;;16.90
70050;BMP180;57391;51.306;22.680;2022-07-21T01:37:45;100167.40;;;16.80
70050;BMP180;57391;51.306;22.680;2022-07-21T01:40:15;100165.20;;;16.78
70050;BMP180;57391;51.306;22.680;2022-07-21T01:43:02;100170.00;;;16.70
70050;BMP180;57391;51.306;22.680;2022-07-21T01:45:29;100175.00;;;16.60
70050;BMP180;57391;51.306;22.680;2022-07-21T01:47:57;100173.60;;;16.60
70050;BMP180;57391;51.306;22.680;2022-07-21T01:50:24;100180.60;;;16.52
70050;BMP180;57391;51.306;22.680;2022-07-21T01:52:56;100180.00;;;16.50
70050;BMP180;57391;51.306;22.680;2022-07-21T01:55:25;100187.40;;;16.40
70050;BMP180;57391;51.306;22.680;2022-07-21T01:57:53;100179.60;;;16.40
70050;BMP180;57391;51.306;22.680;2022-07-21T02:00:20;100181.00;;;16.30
70050;BMP180;57391;51.306;22.680;2022-07-21T02:02:47;100185.00;;;16.22
70050;BMP180;57391;51.306;22.680;2022-07-21T02:05:15;100191.80;;;16.20
70050;BMP180;57391;51.306;22.680;2022-07-21T02:07:42;100197.00;;;16.10
70050;BMP180;57391;51.306;22.680;2022-07-21T02:10:09;100201.60;;;16.10
70050;BMP180;57391;51.306;22.680;2022-07-21T02:12:36;100197.60;;;16.00
70050;BMP180;57391;51.306;22.680;2022-07-21T02:15:04;100191.00;;;16.00
70050;BMP180;57391;51.306;22.680;2022-07-21T02:17:32;100187.00;;;15.90
70050;BMP180;57391;51.306;22.680;2022-07-21T02:19:59;100190.80;;;15.90
70050;BMP180;57391;51.306;22.680;2022-07-21T02:22:26;100192.20;;;15.90
70050;BMP180;57391;51.306;22.680;2022-07-21T02:24:53;100188.40;;;15.88
70050;BMP180;57391;51.306;22.680;2022-07-21T02:27:21;100194.80;;;15.80
70050;BMP180;57391;51.306;22.680;2022-07-21T02:29:48;100193.00;;;15.76
70050;BMP180;57391;51.306;22.680;2022-07-21T02:32:15;100194.80;;;15.70
70050;BMP180;57391;51.306;22.680;2022-07-21T02:34:42;100191.00;;;15.70
70050;BMP180;57391;51.306;22.680;2022-07-21T02:37:09;100189.60;;;15.68
70050;BMP180;57391;51.306;22.680;2022-07-21T02:39:36;100192.40;;;15.64
70050;BMP180;57391;51.306;22.680;2022-07-21T02:42:03;100191.60;;;15.60
70050;BMP180;57391;51.306;22.680;2022-07-21T02:44:31;100189.60;;;15.60
70050;BMP180;57391;51.306;22.680;2022-07-21T02:46:58;100184.80;;;15.60
70050;BMP180;57391;51.306;22.680;2022-07-21T02:49:25;100185.40;;;15.60
70050;BMP180;57391;51.306;22.680;2022-07-21T02:51:52;100183.20;;;15.60
70050;BMP180;57391;51.306;22.680;2022-07-21T02:54:19;100173.60;;;15.60
70050;BMP180;57391;51.306;22.680;2022-07-21T02:56:46;100178.00;;;15.60
70050;BMP180;57391;51.306;22.680;2022-07-21T02:59:13;100177.00;;;15.60
70050;BMP180;57391;51.306;22.680;2022-07-21T03:01:41;100177.80;;;15.60
70050;BMP180;57391;51.306;22.680;2022-07-21T03:04:08;100177.20;;;15.60
70050;BMP180;57391;51.306;22.680;2022-07-21T03:06:35;100176.40;;;15.60
70050;BMP180;57391;51.306;22.680;2022-07-21T03:09:04;100179.40;;;15.60
70050;BMP180;57391;51.306;22.680;2022-07-21T03:11:31;100182.60;;;15.60
70050;BMP180;57391;51.306;22.680;2022-07-21T03:13:58;100180.20;;;15.70
70050;BMP180;57391;51.306;22.680;2022-07-21T03:16:26;100183.20;;;15.70
70050;BMP180;57391;51.306;22.680;2022-07-21T03:18:53;100191.60;;;15.70
70050;BMP180;57391;51.306;22.680;2022-07-21T03:21:20;100188.80;;;15.74
70050;BMP180;57391;51.306;22.680;2022-07-21T03:23:47;100187.20;;;15.78
70050;BMP180;57391;51.306;22.680;2022-07-21T03:26:15;100193.60;;;15.80
70050;BMP180;57391;51.306;22.680;2022-07-21T03:28:44;100194.20;;;15.70
70050;BMP180;57391;51.306;22.680;2022-07-21T03:31:11;100200.00;;;15.72
70050;BMP180;57391;51.306;22.680;2022-07-21T03:33:38;100199.60;;;15.80
70050;BMP180;57391;51.306;22.680;2022-07-21T03:36:06;100200.20;;;15.82
70050;BMP180;57391;51.306;22.680;2022-07-21T03:38:34;100205.60;;;15.96
70050;BMP180;57391;51.306;22.680;2022-07-21T03:41:01;100203.60;;;16.00
70050;BMP180;57391;51.306;22.680;2022-07-21T03:43:28;100206.40;;;16.10
70050;BMP180;57391;51.306;22.680;2022-07-21T03:45:55;100201.60;;;16.20
70050;BMP180;57391;51.306;22.680;2022-07-21T03:48:22;100194.20;;;16.26
70050;BMP180;57391;51.306;22.680;2022-07-21T03:50:50;100190.00;;;16.36
70050;BMP180;57391;51.306;22.680;2022-07-21T03:53:17;100183.80;;;16.48
70050;BMP180;57391;51.306;22.680;2022-07-21T03:55:44;100179.60;;;16.60
70050;BMP180;57391;51.306;22.680;2022-07-21T03:58:12;100167.20;;;17.18
70050;BMP180;57391;51.306;22.680;2022-07-21T04:00:44;100166.60;;;18.66
70050;BMP180;57391;51.306;22.680;2022-07-21T04:03:12;100168.00;;;20.38
70050;BMP180;57391;51.306;22.680;2022-07-21T04:05:41;100168.60;;;22.04
70050;BMP180;57391;51.306;22.680;2022-07-21T04:08:10;100170.80;;;23.62
70050;BMP180;57391;51.306;22.680;2022-07-21T04:10:42;100166.00;;;25.18
70050;BMP180;57391;51.306;22.680;2022-07-21T04:13:12;100169.20;;;26.62
70050;BMP180;57391;51.306;22.680;2022-07-21T04:15:40;100169.20;;;27.92
70050;BMP180;57391;51.306;22.680;2022-07-21T04:18:09;100172.80;;;29.00
70050;BMP180;57391;51.306;22.680;2022-07-21T04:20:36;100173.40;;;29.98
70050;BMP180;57391;51.306;22.680;2022-07-21T04:23:03;100173.60;;;30.96
70050;BMP180;57391;51.306;22.680;2022-07-21T04:25:31;100179.60;;;31.94
70050;BMP180;57391;51.306;22.680;2022-07-21T04:27:58;100179.40;;;32.86
70050;BMP180;57391;51.306;22.680;2022-07-21T04:30:26;100181.00;;;33.74
70050;BMP180;57391;51.306;22.680;2022-07-21T04:32:53;100187.60;;;34.54
70050;BMP180;57391;51.306;22.680;2022-07-21T04:35:20;100191.40;;;35.16
70050;BMP180;57391;51.306;22.680;2022-07-21T04:37:48;100196.20;;;35.80
70050;BMP180;57391;51.306;22.680;2022-07-21T04:40:16;100197.60;;;36.42
70050;BMP180;57391;51.306;22.680;2022-07-21T04:42:44;100192.60;;;36.90
70050;BMP180;57391;51.306;22.680;2022-07-21T04:45:13;100193.40;;;37.36
70050;BMP180;57391;51.306;22.680;2022-07-21T04:50:18;100195.20;;;38.20
70050;BMP180;57391;51.306;22.680;2022-07-21T04:52:46;100198.40;;;38.20
70050;BMP180;57391;51.306;22.680;2022-07-21T04:55:14;100208.20;;;37.50
70050;BMP180;57391;51.306;22.680;2022-07-21T04:57:48;100208.80;;;36.46
70050;BMP180;57391;51.306;22.680;2022-07-21T05:00:22;100208.40;;;35.46
70050;BMP180;57391;51.306;22.680;2022-07-21T05:02:52;100208.00;;;34.74
70050;BMP180;57391;51.306;22.680;2022-07-21T05:05:19;100202.00;;;34.62
70050;BMP180;57391;51.306;22.680;2022-07-21T05:07:47;100197.40;;;35.26
70050;BMP180;57391;51.306;22.680;2022-07-21T05:10:16;100199.40;;;35.84
70050;BMP180;57391;51.306;22.680;2022-07-21T05:12:44;100208.80;;;35.74
70050;BMP180;57391;51.306;22.680;2022-07-21T05:15:12;100213.80;;;34.98
70050;BMP180;57391;51.306;22.680;2022-07-21T05:17:41;100220.40;;;34.26
70050;BMP180;57391;51.306;22.680;2022-07-21T05:20:10;100222.60;;;33.54
70050;BMP180;57391;51.306;22.680;2022-07-21T05:22:38;100225.60;;;33.00
70050;BMP180;57391;51.306;22.680;2022-07-21T05:25:06;100221.20;;;33.28
70050;BMP180;57391;51.306;22.680;2022-07-21T05:27:34;100223.20;;;34.16
70050;BMP180;57391;51.306;22.680;2022-07-21T05:30:04;100223.00;;;34.80
70050;BMP180;57391;51.306;22.680;2022-07-21T05:32:31;100228.80;;;34.90
70050;BMP180;57391;51.306;22.680;2022-07-21T05:34:58;100238.00;;;34.94
70050;BMP180;57391;51.306;22.680;2022-07-21T05:37:25;100244.40;;;34.44
70050;BMP180;57391;51.306;22.680;2022-07-21T05:39:54;100245.60;;;33.90
70050;BMP180;57391;51.306;22.680;2022-07-21T05:42:22;100249.20;;;33.26
70050;BMP180;57391;51.306;22.680;2022-07-21T05:44:49;100249.00;;;32.80
70050;BMP180;57391;51.306;22.680;2022-07-21T05:47:16;100246.20;;;32.60
70050;BMP180;57391;51.306;22.680;2022-07-21T05:49:43;100238.20;;;33.06
70050;BMP180;57391;51.306;22.680;2022-07-21T05:52:10;100231.40;;;33.86
70050;BMP180;57391;51.306;22.680;2022-07-21T05:54:37;100228.00;;;34.44
70050;BMP180;57391;51.306;22.680;2022-07-21T05:57:04;100230.40;;;34.80
70050;BMP180;57391;51.306;22.680;2022-07-21T05:59:32;100231.20;;;34.82
70050;BMP180;57391;51.306;22.680;2022-07-21T06:02:00;100237.40;;;34.80
70050;BMP180;57391;51.306;22.680;2022-07-21T06:04:27;100242.20;;;34.40
70050;BMP180;57391;51.306;22.680;2022-07-21T06:06:54;100244.60;;;33.56
70050;BMP180;57391;51.306;22.680;2022-07-21T06:09:22;100247.60;;;32.80
70050;BMP180;57391;51.306;22.680;2022-07-21T06:11:49;100243.00;;;32.40
70050;BMP180;57391;51.306;22.680;2022-07-21T06:14:16;100249.60;;;31.98
70050;BMP180;57391;51.306;22.680;2022-07-21T06:16:43;100245.20;;;31.80
70050;BMP180;57391;51.306;22.680;2022-07-21T06:19:11;100235.00;;;32.12
70050;BMP180;57391;51.306;22.680;2022-07-21T06:21:38;100232.80;;;32.70
70050;BMP180;57391;51.306;22.680;2022-07-21T06:24:08;100225.80;;;33.08
70050;BMP180;57391;51.306;22.680;2022-07-21T06:26:36;100221.40;;;33.68
70050;BMP180;57391;51.306;22.680;2022-07-21T06:29:03;100219.80;;;34.10
70050;BMP180;57391;51.306;22.680;2022-07-21T06:31:30;100218.80;;;34.50
70050;BMP180;57391;51.306;22.680;2022-07-21T06:33:57;100217.80;;;34.68
70050;BMP180;57391;51.306;22.680;2022-07-21T06:36:25;100220.60;;;34.88
70050;BMP180;57391;51.306;22.680;2022-07-21T06:38:52;100217.20;;;35.28
70050;BMP180;57391;51.306;22.680;2022-07-21T06:41:19;100207.60;;;35.62
70050;BMP180;57391;51.306;22.680;2022-07-21T06:43:46;100204.00;;;35.60
70050;BMP180;57391;51.306;22.680;2022-07-21T06:46:13;100208.20;;;35.60
70050;BMP180;57391;51.306;22.680;2022-07-21T06:48:40;100210.00;;;35.10
70050;BMP180;57391;51.306;22.680;2022-07-21T06:51:08;100208.60;;;34.50
70050;BMP180;57391;51.306;22.680;2022-07-21T06:53:35;100215.20;;;33.96
70050;BMP180;57391;51.306;22.680;2022-07-21T06:56:02;100212.60;;;33.60
70050;BMP180;57391;51.306;22.680;2022-07-21T06:58:30;100213.40;;;33.20
70050;BMP180;57391;51.306;22.680;2022-07-21T07:00:59;100210.80;;;33.10
70050;BMP180;57391;51.306;22.680;2022-07-21T07:03:26;100212.00;;;33.00
70050;BMP180;57391;51.306;22.680;2022-07-21T07:05:53;100211.40;;;33.28
70050;BMP180;57391;51.306;22.680;2022-07-21T07:08:21;100209.20;;;33.64
70050;BMP180;57391;51.306;22.680;2022-07-21T07:10:48;100203.00;;;34.08
70050;BMP180;57391;51.306;22.680;2022-07-21T07:13:15;100205.00;;;34.44
70050;BMP180;57391;51.306;22.680;2022-07-21T07:15:44;100203.80;;;34.80
70050;BMP180;57391;51.306;22.680;2022-07-21T07:18:11;100204.40;;;35.10
70050;BMP180;57391;51.306;22.680;2022-07-21T07:20:38;100208.00;;;35.40
70050;BMP180;57391;51.306;22.680;2022-07-21T07:23:06;100208.80;;;35.66
70050;BMP180;57391;51.306;22.680;2022-07-21T07:25:33;100211.00;;;35.92
70050;BMP180;57391;51.306;22.680;2022-07-21T07:28:01;100212.80;;;36.20
70050;BMP180;57391;51.306;22.680;2022-07-21T07:30:28;100213.80;;;36.54
70050;BMP180;57391;51.306;22.680;2022-07-21T07:32:55;100220.20;;;36.80
70050;BMP180;57391;51.306;22.680;2022-07-21T07:35:22;100222.20;;;36.96
70050;BMP180;57391;51.306;22.680;2022-07-21T07:37:50;100217.80;;;37.00
70050;BMP180;57391;51.306;22.680;2022-07-21T07:40:21;100221.20;;;36.92
70050;BMP180;57391;51.306;22.680;2022-07-21T07:42:50;100223.60;;;36.24
70050;BMP180;57391;51.306;22.680;2022-07-21T07:45:17;100228.40;;;36.00
70050;BMP180;57391;51.306;22.680;2022-07-21T07:47:44;100227.00;;;35.90
70050;BMP180;57391;51.306;22.680;2022-07-21T07:50:14;100224.00;;;35.78
70050;BMP180;57391;51.306;22.680;2022-07-21T07:52:44;100225.40;;;35.50
70050;BMP180;57391;51.306;22.680;2022-07-21T07:55:13;100226.40;;;35.20
70050;BMP180;57391;51.306;22.680;2022-07-21T07:57:42;100232.00;;;34.78
70050;BMP180;57391;51.306;22.680;2022-07-21T08:00:15;100231.80;;;34.12
70050;BMP180;57391;51.306;22.680;2022-07-21T08:02:42;100231.00;;;33.70
70050;BMP180;57391;51.306;22.680;2022-07-21T08:05:09;100230.40;;;33.60
70050;BMP180;57391;51.306;22.680;2022-07-21T08:07:39;100228.00;;;33.60
70050;BMP180;57391;51.306;22.680;2022-07-21T08:10:10;100221.20;;;33.46
70050;BMP180;57391;51.306;22.680;2022-07-21T08:12:40;100230.60;;;33.50
70050;BMP180;57391;51.306;22.680;2022-07-21T08:15:08;100232.20;;;33.72
70050;BMP180;57391;51.306;22.680;2022-07-21T08:17:36;100236.60;;;33.96
70050;BMP180;57391;51.306;22.680;2022-07-21T08:20:04;100236.40;;;34.24
70050;BMP180;57391;51.306;22.680;2022-07-21T08:22:32;100234.80;;;34.40
70050;BMP180;57391;51.306;22.680;2022-07-21T08:24:59;100231.60;;;34.60
70050;BMP180;57391;51.306;22.680;2022-07-21T08:27:26;100229.00;;;34.40
70050;BMP180;57391;51.306;22.680;2022-07-21T08:29:53;100225.20;;;34.50
70050;BMP180;57391;51.306;22.680;2022-07-21T08:32:20;100226.00;;;34.70
70050;BMP180;57391;51.306;22.680;2022-07-21T08:34:48;100227.60;;;34.80
70050;BMP180;57391;51.306;22.680;2022-07-21T08:37:15;100224.80;;;35.02
70050;BMP180;57391;51.306;22.680;2022-07-21T08:39:42;100232.60;;;35.08
70050;BMP180;57391;51.306;22.680;2022-07-21T08:42:11;100231.40;;;35.00
70050;BMP180;57391;51.306;22.680;2022-07-21T08:44:39;100236.20;;;35.02
70050;BMP180;57391;51.306;22.680;2022-07-21T08:47:07;100230.00;;;35.06
70050;BMP180;57391;51.306;22.680;2022-07-21T08:49:34;100231.40;;;35.18
70050;BMP180;57391;51.306;22.680;2022-07-21T08:52:02;100230.20;;;35.26
70050;BMP180;57391;51.306;22.680;2022-07-21T08:54:30;100222.80;;;35.36
70050;BMP180;57391;51.306;22.680;2022-07-21T08:56:58;100223.00;;;35.30
70050;BMP180;57391;51.306;22.680;2022-07-21T08:59:25;100221.20;;;35.20
70050;BMP180;57391;51.306;22.680;2022-07-21T09:01:53;100221.40;;;35.18
70050;BMP180;57391;51.306;22.680;2022-07-21T09:07:01;100215.40;;;35.34
70050;BMP180;57391;51.306;22.680;2022-07-21T09:09:31;100216.80;;;35.48
70050;BMP180;57391;51.306;22.680;2022-07-21T09:12:00;100212.80;;;35.50
70050;BMP180;57391;51.306;22.680;2022-07-21T09:14:33;100213.40;;;35.48
70050;BMP180;57391;51.306;22.680;2022-07-21T09:17:03;100206.80;;;35.20
70050;BMP180;57391;51.306;22.680;2022-07-21T09:19:36;100201.00;;;35.06
70050;BMP180;57391;51.306;22.680;2022-07-21T09:22:12;100193.40;;;34.92
70050;BMP180;57391;51.306;22.680;2022-07-21T09:24:40;100196.00;;;34.80
70050;BMP180;57391;51.306;22.680;2022-07-21T09:29:44;100194.60;;;34.90
70050;BMP180;57391;51.306;22.680;2022-07-21T09:35:11;100188.00;;;35.00
70050;BMP180;57391;51.306;22.680;2022-07-21T09:37:41;100181.40;;;34.90
70050;BMP180;57391;51.306;22.680;2022-07-21T09:40:13;100189.60;;;34.70
70050;BMP180;57391;51.306;22.680;2022-07-21T09:42:48;100180.80;;;34.70
70050;BMP180;57391;51.306;22.680;2022-07-21T09:45:18;100177.60;;;34.70
70050;BMP180;57391;51.306;22.680;2022-07-21T09:47:46;100181.20;;;34.70
70050;BMP180;57391;51.306;22.680;2022-07-21T09:50:16;100182.40;;;34.78
70050;BMP180;57391;51.306;22.680;2022-07-21T09:52:46;100182.20;;;34.90
70050;BMP180;57391;51.306;22.680;2022-07-21T09:55:16;100181.40;;;34.80
70050;BMP180;57391;51.306;22.680;2022-07-21T09:57:44;100185.40;;;34.80
70050;BMP180;57391;51.306;22.680;2022-07-21T10:00:17;100186.60;;;34.70
70050;BMP180;57391;51.306;22.680;2022-07-21T10:02:44;100185.80;;;34.70
70050;BMP180;57391;51.306;22.680;2022-07-21T10:05:15;100186.60;;;34.60
70050;BMP180;57391;51.306;22.680;2022-07-21T10:07:46;100177.60;;;34.46
70050;BMP180;57391;51.306;22.680;2022-07-21T10:10:16;100169.00;;;34.58
70050;BMP180;57391;51.306;22.680;2022-07-21T10:12:45;100166.60;;;34.54
70050;BMP180;57391;51.306;22.680;2022-07-21T10:15:12;100166.00;;;34.62
70050;BMP180;57391;51.306;22.680;2022-07-21T10:17:39;100165.40;;;34.70
70050;BMP180;57391;51.306;22.680;2022-07-21T10:20:16;100166.00;;;34.50
70050;BMP180;57391;51.306;22.680;2022-07-21T10:23:16;100168.80;;;34.38
70050;BMP180;57391;51.306;22.680;2022-07-21T10:25:46;100167.00;;;34.30
70050;BMP180;57391;51.306;22.680;2022-07-21T10:30:53;100163.60;;;34.20
70050;BMP180;57391;51.306;22.680;2022-07-21T10:41:45;100155.60;;;34.30
70050;BMP180;57391;51.306;22.680;2022-07-21T10:47:22;100149.40;;;34.40
70050;BMP180;57391;51.306;22.680;2022-07-21T10:50:03;100148.80;;;34.50
70050;BMP180;57391;51.306;22.680;2022-07-21T10:55:21;100153.00;;;34.30
70050;BMP180;57391;51.306;22.680;2022-07-21T11:01:03;100151.20;;;34.30
70050;BMP180;57391;51.306;22.680;2022-07-21T11:03:39;100146.40;;;34.20
70050;BMP180;57391;51.306;22.680;2022-07-21T11:06:21;100142.40;;;33.90
70050;BMP180;57391;51.306;22.680;2022-07-21T11:11:36;100134.60;;;33.76
70050;BMP180;57391;51.306;22.680;2022-07-21T11:19:37;100131.40;;;33.50
70050;BMP180;57391;51.306;22.680;2022-07-21T11:22:24;100135.20;;;33.50
70050;BMP180;57391;51.306;22.680;2022-07-21T11:25:04;100131.80;;;33.50
70050;BMP180;57391;51.306;22.680;2022-07-21T11:27:36;100132.40;;;33.60
70050;BMP180;57391;51.306;22.680;2022-07-21T11:30:09;100127.40;;;33.60
70050;BMP180;57391;51.306;22.680;2022-07-21T11:32:46;100120.60;;;33.50
70050;BMP180;57391;51.306;22.680;2022-07-21T11:35:14;100121.00;;;33.50
70050;BMP180;57391;51.306;22.680;2022-07-21T11:37:44;100115.40;;;33.58
70050;BMP180;57391;51.306;22.680;2022-07-21T11:40:19;100123.80;;;33.60
70050;BMP180;57391;51.306;22.680;2022-07-21T11:42:51;100123.60;;;33.60
70050;BMP180;57391;51.306;22.680;2022-07-21T11:45:24;100119.60;;;33.68
70050;BMP180;57391;51.306;22.680;2022-07-21T11:47:55;100116.40;;;33.64
70050;BMP180;57391;51.306;22.680;2022-07-21T11:50:23;100118.20;;;33.60
70050;BMP180;57391;51.306;22.680;2022-07-21T11:52:50;100112.40;;;33.60
70050;BMP180;57391;51.306;22.680;2022-07-21T11:55:17;100105.40;;;33.60
70050;BMP180;57391;51.306;22.680;2022-07-21T11:57:46;100100.40;;;33.60
70050;BMP180;57391;51.306;22.680;2022-07-21T12:00:15;100102.60;;;33.50
70050;BMP180;57391;51.306;22.680;2022-07-21T12:02:43;100102.20;;;33.50
70050;BMP180;57391;51.306;22.680;2022-07-21T12:05:11;100094.40;;;33.48
70050;BMP180;57391;51.306;22.680;2022-07-21T12:07:48;100097.20;;;33.50
70050;BMP180;57391;51.306;22.680;2022-07-21T12:10:28;100090.20;;;33.50
70050;BMP180;57391;51.306;22.680;2022-07-21T12:13:06;100086.00;;;33.40
70050;BMP180;57391;51.306;22.680;2022-07-21T12:15:36;100076.00;;;33.24
70050;BMP180;57391;51.306;22.680;2022-07-21T12:18:06;100073.20;;;33.08
70050;BMP180;57391;51.306;22.680;2022-07-21T12:20:40;100075.00;;;32.80
70050;BMP180;57391;51.306;22.680;2022-07-21T12:23:23;100063.80;;;32.60
70050;BMP180;57391;51.306;22.680;2022-07-21T12:25:53;100072.40;;;32.60
70050;BMP180;57391;51.306;22.680;2022-07-21T12:28:40;100071.20;;;32.70
70050;BMP180;57391;51.306;22.680;2022-07-21T12:31:13;100074.40;;;32.80
70050;BMP180;57391;51.306;22.680;2022-07-21T12:33:41;100075.60;;;32.90
70050;BMP180;57391;51.306;22.680;2022-07-21T12:36:09;100069.20;;;32.92
70050;BMP180;57391;51.306;22.680;2022-07-21T12:38:45;100069.80;;;32.92
70050;BMP180;57391;51.306;22.680;2022-07-21T12:41:16;100066.40;;;32.92
70050;BMP180;57391;51.306;22.680;2022-07-21T12:43:58;100059.60;;;33.00
70050;BMP180;57391;51.306;22.680;2022-07-21T12:46:34;100063.20;;;33.10
70050;BMP180;57391;51.306;22.680;2022-07-21T12:49:08;100058.80;;;33.10
70050;BMP180;57391;51.306;22.680;2022-07-21T12:51:36;100061.60;;;33.10
70050;BMP180;57391;51.306;22.680;2022-07-21T12:54:04;100058.80;;;33.10
70050;BMP180;57391;51.306;22.680;2022-07-21T12:56:34;100060.20;;;33.04
70050;BMP180;57391;51.306;22.680;2022-07-21T12:59:03;100054.60;;;33.00
70050;BMP180;57391;51.306;22.680;2022-07-21T13:01:33;100053.60;;;33.00
70050;BMP180;57391;51.306;22.680;2022-07-21T13:04:04;100051.20;;;32.98
70050;BMP180;57391;51.306;22.680;2022-07-21T13:06:33;100051.80;;;32.90
70050;BMP180;57391;51.306;22.680;2022-07-21T13:09:00;100049.40;;;32.94
70050;BMP180;57391;51.306;22.680;2022-07-21T13:11:27;100045.20;;;33.00
70050;BMP180;57391;51.306;22.680;2022-07-21T13:13:54;100040.00;;;32.90
70050;BMP180;57391;51.306;22.680;2022-07-21T13:16:24;100038.00;;;32.90
70050;BMP180;57391;51.306;22.680;2022-07-21T13:18:51;100034.40;;;32.90
70050;BMP180;57391;51.306;22.680;2022-07-21T13:21:18;100033.80;;;32.90
70050;BMP180;57391;51.306;22.680;2022-07-21T13:23:46;100026.60;;;32.90
70050;BMP180;57391;51.306;22.680;2022-07-21T13:26:13;100026.40;;;32.80
70050;BMP180;57391;51.306;22.680;2022-07-21T13:28:40;100024.60;;;32.80
70050;BMP180;57391;51.306;22.680;2022-07-21T13:31:08;100023.00;;;32.80
70050;BMP180;57391;51.306;22.680;2022-07-21T13:33:36;100022.00;;;32.80
70050;BMP180;57391;51.306;22.680;2022-07-21T13:36:08;100018.60;;;32.88
70050;BMP180;57391;51.306;22.680;2022-07-21T13:38:35;100016.00;;;32.90
70050;BMP180;57391;51.306;22.680;2022-07-21T13:41:04;100011.80;;;32.80
70050;BMP180;57391;51.306;22.680;2022-07-21T13:43:32;100012.40;;;32.80
70050;BMP180;57391;51.306;22.680;2022-07-21T13:45:59;100015.20;;;32.80
70050;BMP180;57391;51.306;22.680;2022-07-21T13:48:26;100009.80;;;32.80
70050;BMP180;57391;51.306;22.680;2022-07-21T13:50:54;100014.00;;;32.70
70050;BMP180;57391;51.306;22.680;2022-07-21T13:53:21;100007.60;;;32.60
70050;BMP180;57391;51.306;22.680;2022-07-21T13:55:48;100007.80;;;32.60
70050;BMP180;57391;51.306;22.680;2022-07-21T13:58:17;100008.60;;;32.54
70050;BMP180;57391;51.306;22.680;2022-07-21T14:00:44;99988.00;;;32.50
70050;BMP180;57391;51.306;22.680;2022-07-21T14:03:12;100005.00;;;32.50
70050;BMP180;57391;51.306;22.680;2022-07-21T14:05:39;100003.80;;;32.54
70050;BMP180;57391;51.306;22.680;2022-07-21T14:08:06;100001.40;;;32.60
70050;BMP180;57391;51.306;22.680;2022-07-21T14:10:34;99997.60;;;32.58
70050;BMP180;57391;51.306;22.680;2022-07-21T14:13:01;99993.60;;;32.50
70050;BMP180;57391;51.306;22.680;2022-07-21T14:15:29;99992.80;;;32.50
70050;BMP180;57391;51.306;22.680;2022-07-21T14:17:56;99989.40;;;32.50
70050;BMP180;57391;51.306;22.680;2022-07-21T14:20:24;99987.40;;;32.40
70050;BMP180;57391;51.306;22.680;2022-07-21T14:22:52;99985.00;;;32.40
70050;BMP180;57391;51.306;22.680;2022-07-21T14:25:20;99983.20;;;32.40
70050;BMP180;57391;51.306;22.680;2022-07-21T14:27:52;99977.00;;;32.30
70050;BMP180;57391;51.306;22.680;2022-07-21T14:30:21;99973.20;;;32.30
70050;BMP180;57391;51.306;22.680;2022-07-21T14:32:49;99973.60;;;32.30